createdAt,value
2019-01-11T00:01:03.389Z,5.53
2019-01-11T00:03:33.013Z,3.80
2019-01-11T00:06:02.704Z,19.70
2019-01-11T00:08:32.309Z,9.23
2019-01-11T00:11:01.944Z,11.33
2019-01-11T00:13:31.555Z,3.67
2019-01-11T00:16:01.174Z,4.73
2019-01-11T00:18:30.757Z,6.53
2019-01-11T00:21:00.305Z,10.23
2019-01-11T00:23:29.923Z,4.37
2019-01-11T00:25:59.545Z,9.30
2019-01-11T00:28:29.459Z,11.60
2019-01-11T00:30:59.046Z,10.23
2019-01-11T00:33:28.602Z,15.63
2019-01-11T00:35:58.156Z,7.77
2019-01-11T00:38:27.854Z,12.70
2019-01-11T00:40:57.423Z,6.80
2019-01-11T00:43:26.960Z,5.77
2019-01-11T00:45:56.577Z,5.37
2019-01-11T00:48:26.154Z,7.87
2019-01-11T00:50:55.728Z,4.43
2019-01-11T00:53:25.367Z,5.13
2019-01-11T00:55:55.041Z,8.77
2019-01-11T00:58:24.580Z,5.13
2019-01-11T01:00:54.207Z,12.30
2019-01-11T01:03:23.829Z,6.23
2019-01-11T01:05:53.509Z,6.37
2019-01-11T01:08:23.179Z,5.63
2019-01-11T01:10:52.873Z,5.50
2019-01-11T01:13:22.409Z,5.83
2019-01-11T01:15:52.434Z,9.80
2019-01-11T01:18:22.031Z,7.03
2019-01-11T01:20:51.666Z,6.93
2019-01-11T01:23:21.245Z,6.37
2019-01-11T01:25:50.944Z,7.77
2019-01-11T01:28:20.470Z,8.57
2019-01-11T01:30:50.173Z,6.73
2019-01-11T01:33:19.800Z,7.83
2019-01-11T01:35:49.598Z,7.13
2019-01-11T01:38:19.393Z,6.67
2019-01-11T01:40:48.979Z,6.80
2019-01-11T01:43:18.497Z,7.50
2019-01-11T01:45:48.061Z,10.47
2019-01-11T01:48:17.591Z,8.93
2019-01-11T01:50:47.267Z,7.60
2019-01-11T01:53:16.826Z,9.80
2019-01-11T01:55:46.384Z,7.53
2019-01-11T01:58:15.962Z,8.70
2019-01-11T02:00:45.575Z,8.20
2019-01-11T02:03:15.126Z,11.10
2019-01-11T02:05:44.665Z,9.87
2019-01-11T02:08:14.290Z,7.57
2019-01-11T02:10:43.864Z,9.07
2019-01-11T02:13:13.490Z,9.50
2019-01-11T02:15:43.095Z,8.93
2019-01-11T02:18:12.936Z,9.83
2019-01-11T02:20:42.476Z,11.77
2019-01-11T02:23:12.061Z,9.50
2019-01-11T02:25:46.193Z,13.87
2019-01-11T02:28:13.177Z,13.43
2019-01-11T02:30:42.713Z,11.80
2019-01-11T02:33:12.274Z,11.43
2019-01-11T02:35:41.842Z,20.47
2019-01-11T02:38:11.410Z,17.60
2019-01-11T02:40:40.956Z,16.30
2019-01-11T02:43:10.649Z,12.40
2019-01-11T02:45:40.285Z,18.20
2019-01-11T02:48:09.942Z,17.40
2019-01-11T02:50:39.603Z,13.27
2019-01-11T02:53:09.188Z,21.00
2019-01-11T02:55:38.731Z,15.37
2019-01-11T02:58:08.430Z,14.70
2019-01-11T03:00:38.091Z,19.40
2019-01-11T03:03:07.895Z,18.83
2019-01-11T03:05:37.840Z,24.50
2019-01-11T03:08:07.492Z,20.33
2019-01-11T03:10:37.197Z,17.27
2019-01-11T03:13:06.839Z,15.53
2019-01-11T03:15:36.398Z,21.33
2019-01-11T03:18:06.107Z,21.23
2019-01-11T03:20:35.673Z,19.33
2019-01-11T03:23:05.284Z,22.07
2019-01-11T03:25:34.980Z,17.97
2019-01-11T03:28:04.568Z,26.67
2019-01-11T03:30:34.122Z,23.93
2019-01-11T03:33:03.750Z,22.90
2019-01-11T03:35:33.321Z,26.63
2019-01-11T03:38:03.097Z,18.93
2019-01-11T03:40:32.814Z,23.17
2019-01-11T03:43:02.519Z,24.23
2019-01-11T03:45:32.150Z,27.03
2019-01-11T03:48:01.732Z,30.80
2019-01-11T03:50:31.283Z,24.20
2019-01-11T03:53:00.892Z,26.13
2019-01-11T03:55:30.488Z,23.43
2019-01-11T03:58:00.032Z,23.20
2019-01-11T04:00:29.628Z,23.73
2019-01-11T04:02:59.184Z,24.73
2019-01-11T04:05:28.803Z,22.63
2019-01-11T04:07:58.409Z,22.00
2019-01-11T04:10:27.973Z,24.80
2019-01-11T04:12:57.515Z,21.00
2019-01-11T04:15:27.360Z,26.50
2019-01-11T04:18:01.488Z,24.23
2019-01-11T04:20:31.035Z,25.73
2019-01-11T04:23:00.571Z,27.87
2019-01-11T04:25:30.805Z,27.57
2019-01-11T04:28:00.361Z,22.27
2019-01-11T04:30:29.983Z,22.07
2019-01-11T04:32:59.790Z,24.20
2019-01-11T04:35:29.411Z,19.80
2019-01-11T04:37:58.955Z,25.00
2019-01-11T04:40:34.141Z,19.97
2019-01-11T04:42:59.813Z,22.20
2019-01-11T04:45:29.391Z,26.80
2019-01-11T04:47:58.967Z,25.07
2019-01-11T04:50:28.840Z,21.87
2019-01-11T04:52:58.445Z,27.97
2019-01-11T04:55:28.071Z,30.03
2019-01-11T04:57:57.595Z,33.93
2019-01-11T05:00:27.218Z,26.10
2019-01-11T05:02:57.103Z,27.33
2019-01-11T05:05:26.713Z,25.90
2019-01-11T05:07:56.343Z,29.37
2019-01-11T05:10:26.088Z,20.87
2019-01-11T05:12:56.471Z,24.10
2019-01-11T05:15:26.030Z,28.70
2019-01-11T05:17:55.999Z,29.80
2019-01-11T05:20:25.562Z,27.07
2019-01-11T05:22:55.201Z,25.60
2019-01-11T05:25:24.880Z,28.83
2019-01-11T05:27:54.458Z,23.70
2019-01-11T05:30:24.314Z,20.93
2019-01-11T05:32:53.899Z,26.43
2019-01-11T05:35:23.622Z,29.10
2019-01-11T05:37:53.187Z,22.43
2019-01-11T05:40:22.800Z,23.93
2019-01-11T05:42:52.393Z,25.53
2019-01-11T05:45:22.122Z,28.50
2019-01-11T05:47:51.913Z,25.20
2019-01-11T05:50:24.423Z,24.37
2019-01-11T05:52:52.851Z,24.70
2019-01-11T05:55:24.315Z,26.97
2019-01-11T05:58:11.763Z,27.37
2019-01-11T06:00:41.415Z,24.70
2019-01-11T06:03:10.987Z,29.47
2019-01-11T06:05:40.543Z,31.43
2019-01-11T06:08:11.788Z,24.00
2019-01-11T06:10:41.548Z,25.10
2019-01-11T06:13:11.162Z,27.47
2019-01-11T06:15:40.735Z,28.70
2019-01-11T06:18:10.305Z,24.20
2019-01-11T06:20:40.039Z,26.43
2019-01-11T06:23:09.648Z,28.70
2019-01-11T06:25:39.267Z,30.03
2019-01-11T06:28:08.816Z,24.83
2019-01-11T06:30:38.429Z,24.37
2019-01-11T06:33:07.997Z,24.03
2019-01-11T06:35:37.540Z,28.47
2019-01-11T06:38:07.161Z,31.33
2019-01-11T06:40:36.777Z,23.70
2019-01-11T06:43:06.395Z,23.77
2019-01-11T06:45:37.710Z,29.23
2019-01-11T06:48:09.122Z,22.93
2019-01-11T06:50:38.770Z,25.77
2019-01-11T06:53:08.522Z,23.07
2019-01-11T06:55:38.307Z,21.80
2019-01-11T06:58:09.312Z,22.87
2019-01-11T07:00:39.112Z,22.63
2019-01-11T07:03:08.687Z,21.97
2019-01-11T07:05:38.368Z,21.90
2019-01-11T07:08:08.289Z,20.50
2019-01-11T07:10:37.902Z,18.07
2019-01-11T07:13:07.450Z,17.93
2019-01-11T07:15:37.054Z,18.47
2019-01-11T07:18:06.676Z,17.33
2019-01-11T07:20:36.228Z,19.27
2019-01-11T07:23:05.966Z,18.93
2019-01-11T07:25:35.511Z,20.10
2019-01-11T07:28:05.072Z,20.37
2019-01-11T07:30:36.324Z,16.90
2019-01-11T07:33:07.586Z,16.80
2019-01-11T07:35:47.605Z,18.97
2019-01-11T07:38:17.239Z,15.53
2019-01-11T07:40:46.910Z,14.53
2019-01-11T07:43:16.537Z,14.77
2019-01-11T07:45:46.138Z,14.07
2019-01-11T07:48:15.771Z,15.30
2019-01-11T07:50:49.306Z,14.17
2019-01-11T07:53:16.677Z,21.70
2019-01-11T07:55:46.293Z,18.80
2019-01-11T07:58:15.975Z,12.50
2019-01-11T08:00:45.657Z,13.20
2019-01-11T08:03:15.206Z,11.63
2019-01-11T08:05:44.795Z,14.57
2019-01-11T08:08:14.330Z,10.67
2019-01-11T08:10:43.931Z,12.83
2019-01-11T08:13:13.596Z,10.80
2019-01-11T08:15:43.137Z,11.43
2019-01-11T08:18:12.700Z,10.63
2019-01-11T08:20:42.309Z,11.00
2019-01-11T08:23:11.970Z,12.00
2019-01-11T08:25:41.528Z,11.30
2019-01-11T08:28:12.156Z,13.90
2019-01-11T08:30:41.699Z,12.80
2019-01-11T08:33:11.264Z,11.10
2019-01-11T08:35:40.841Z,10.67
2019-01-11T08:38:10.470Z,10.53
2019-01-11T08:40:40.021Z,9.97
2019-01-11T08:43:09.623Z,11.20
2019-01-11T08:45:39.152Z,9.93
2019-01-11T08:48:08.719Z,8.97
2019-01-11T08:50:38.749Z,9.33
2019-01-11T08:53:08.344Z,9.53
2019-01-11T08:55:37.946Z,10.13
2019-01-11T08:58:07.592Z,8.47
2019-01-11T09:00:37.125Z,9.37
2019-01-11T09:03:06.660Z,8.47
2019-01-11T09:05:36.236Z,8.83
2019-01-11T09:08:06.182Z,10.50
2019-01-11T09:10:35.736Z,10.47
2019-01-11T09:13:05.403Z,8.53
2019-01-11T09:15:34.954Z,8.03
2019-01-11T09:18:10.512Z,10.53
2019-01-11T09:20:40.352Z,13.17
2019-01-11T09:23:09.955Z,8.77
2019-01-11T09:25:39.487Z,8.70
2019-01-11T09:28:09.189Z,9.50
2019-01-11T09:30:38.744Z,12.13
2019-01-11T09:33:08.525Z,8.73
2019-01-11T09:35:38.335Z,9.23
2019-01-11T09:38:07.988Z,10.90
2019-01-11T09:40:37.495Z,9.70
2019-01-11T09:43:07.066Z,11.00
2019-01-11T09:45:36.605Z,9.77
2019-01-11T09:48:08.410Z,8.67
2019-01-11T09:50:38.128Z,9.53
2019-01-11T09:53:07.749Z,9.90
2019-01-11T09:55:37.309Z,9.23
2019-01-11T09:58:07.004Z,9.70
2019-01-11T10:00:36.686Z,14.10
2019-01-11T10:03:06.291Z,10.00
2019-01-11T10:05:35.861Z,10.00
2019-01-11T10:08:05.562Z,9.43
2019-01-11T10:10:35.161Z,14.00
2019-01-11T10:13:04.907Z,18.07
2019-01-11T10:15:34.440Z,14.33
2019-01-11T10:18:04.167Z,13.20
2019-01-11T10:20:33.734Z,18.27
2019-01-11T10:23:03.630Z,14.27
2019-01-11T10:25:33.259Z,16.57
2019-01-11T10:28:02.828Z,11.70
2019-01-11T10:30:32.373Z,16.03
2019-01-11T10:33:01.919Z,25.90
2019-01-11T10:35:31.896Z,19.13
2019-01-11T10:38:01.440Z,20.63
2019-01-11T10:40:30.986Z,30.47
2019-01-11T10:43:00.793Z,13.73
2019-01-11T10:45:30.334Z,19.43
2019-01-11T10:47:59.948Z,20.43
2019-01-11T10:50:29.628Z,18.30
2019-01-11T10:52:59.180Z,20.17
2019-01-11T10:55:28.847Z,18.57
2019-01-11T10:57:58.768Z,19.43
2019-01-11T11:00:29.270Z,22.97
2019-01-11T11:02:59.043Z,29.13
2019-01-11T11:05:29.338Z,18.73
2019-01-11T11:07:59.017Z,16.37
2019-01-11T11:10:28.660Z,19.17
2019-01-11T11:12:58.231Z,13.63
2019-01-11T11:15:27.777Z,12.93
2019-01-11T11:17:57.334Z,10.43
2019-01-11T11:20:26.891Z,22.00
2019-01-11T11:22:56.602Z,9.70
2019-01-11T11:25:26.150Z,10.00
2019-01-11T11:27:55.728Z,10.37
2019-01-11T11:30:25.637Z,11.00
2019-01-11T11:32:58.915Z,10.70
2019-01-11T11:35:28.919Z,11.00
2019-01-11T11:37:58.469Z,11.13
2019-01-11T11:40:28.543Z,9.23
2019-01-11T11:42:58.183Z,9.57
2019-01-11T11:45:31.109Z,9.20
2019-01-11T11:48:00.636Z,11.43
2019-01-11T11:50:30.463Z,10.70
2019-01-11T11:53:00.582Z,10.00
2019-01-11T11:55:30.120Z,9.57
2019-01-11T11:57:59.798Z,9.23
2019-01-11T12:00:29.476Z,11.20
2019-01-11T12:02:59.083Z,10.23
2019-01-11T12:05:28.931Z,13.00
2019-01-11T12:07:58.458Z,9.80
2019-01-11T12:10:28.004Z,9.63
2019-01-11T12:12:57.748Z,9.10
2019-01-11T12:15:27.299Z,9.00
2019-01-11T12:17:56.832Z,10.40
2019-01-11T12:20:29.194Z,9.47
2019-01-11T12:22:58.864Z,9.70
2019-01-11T12:25:28.397Z,8.27
2019-01-11T12:27:57.974Z,10.63
2019-01-11T12:30:27.581Z,7.63
2019-01-11T12:32:57.119Z,7.33
2019-01-11T12:35:26.702Z,7.80
2019-01-11T12:37:56.227Z,8.47
2019-01-11T12:40:25.757Z,8.93
2019-01-11T12:42:55.323Z,8.97
2019-01-11T12:45:24.855Z,8.00
2019-01-11T12:47:54.385Z,8.50
2019-01-11T12:50:25.685Z,11.97
2019-01-11T12:52:55.218Z,8.50
2019-01-11T12:55:24.843Z,7.97
2019-01-11T12:57:54.419Z,8.97
2019-01-11T13:00:24.903Z,12.50
2019-01-11T13:02:54.460Z,8.23
2019-01-11T13:05:24.658Z,9.07
2019-01-11T13:07:54.212Z,12.33
2019-01-11T13:10:23.966Z,10.87
2019-01-11T13:12:53.531Z,8.13
2019-01-11T13:15:23.263Z,9.40
2019-01-11T13:17:52.836Z,10.40
2019-01-11T13:20:22.459Z,12.80
2019-01-11T13:22:52.404Z,10.67
2019-01-11T13:25:22.015Z,9.13
2019-01-11T13:27:51.581Z,10.27
2019-01-11T13:30:21.286Z,9.70
2019-01-11T13:32:50.905Z,8.20
2019-01-11T13:35:20.651Z,9.67
2019-01-11T13:37:50.336Z,9.07
2019-01-11T13:40:22.762Z,8.30
2019-01-11T13:42:52.487Z,8.03
2019-01-11T13:45:22.562Z,7.80
2019-01-11T13:47:52.518Z,7.70
2019-01-11T13:50:38.465Z,7.63
2019-01-11T13:53:09.605Z,7.53
2019-01-11T13:55:39.210Z,8.70
2019-01-11T13:58:09.028Z,7.77
2019-01-11T14:00:38.640Z,8.27
2019-01-11T14:03:08.634Z,8.50
2019-01-11T14:05:38.700Z,7.50
2019-01-11T14:08:08.298Z,7.97
2019-01-11T14:10:37.919Z,7.03
2019-01-11T14:13:07.596Z,7.10
2019-01-11T14:15:37.135Z,8.90
2019-01-11T14:18:06.937Z,6.60
2019-01-11T14:20:36.591Z,7.20
2019-01-11T14:23:06.366Z,6.20
2019-01-11T14:25:36.056Z,7.70
2019-01-11T14:28:06.030Z,6.70
2019-01-11T14:30:35.807Z,6.87
2019-01-11T14:33:05.568Z,7.17
2019-01-11T14:35:35.313Z,7.10
2019-01-11T14:38:04.996Z,6.17
2019-01-11T14:40:34.875Z,8.80
2019-01-11T14:43:06.464Z,6.40
2019-01-11T14:45:36.011Z,8.60
2019-01-11T14:48:05.982Z,6.83
2019-01-11T14:50:35.613Z,7.07
2019-01-11T14:53:05.394Z,6.47
2019-01-11T14:55:34.952Z,6.00
2019-01-11T14:58:04.727Z,6.83
2019-01-11T15:00:34.273Z,9.03
2019-01-11T15:03:03.885Z,8.23
2019-01-11T15:05:33.567Z,6.23
2019-01-11T15:08:03.105Z,7.30
2019-01-11T15:10:32.648Z,6.87
2019-01-11T15:13:02.215Z,6.67
2019-01-11T15:15:31.749Z,7.23
2019-01-11T15:18:01.292Z,7.93
2019-01-11T15:20:30.857Z,6.50
2019-01-11T15:23:00.387Z,8.00
2019-01-11T15:25:29.966Z,7.17
2019-01-11T15:27:59.588Z,8.43
2019-01-11T15:30:29.129Z,10.43
2019-01-11T15:32:58.656Z,8.27
2019-01-11T15:35:28.221Z,10.30
2019-01-11T15:37:58.106Z,7.80
2019-01-11T15:40:28.272Z,7.87
2019-01-11T15:42:57.813Z,7.90
2019-01-11T15:45:27.359Z,8.40
2019-01-11T15:47:56.891Z,9.67
2019-01-11T15:50:49.171Z,8.43
2019-01-11T15:53:18.700Z,8.73
2019-01-11T15:55:48.752Z,8.70
2019-01-11T15:58:18.312Z,8.67
2019-01-11T16:00:49.485Z,7.00
2019-01-11T16:03:19.470Z,7.30
2019-01-11T16:05:53.992Z,7.17
2019-01-11T16:08:23.551Z,6.93
2019-01-11T16:11:17.710Z,6.90
2019-01-11T16:14:13.272Z,7.93
2019-01-11T16:16:42.807Z,7.77
2019-01-11T16:19:12.624Z,7.80
2019-01-11T16:21:42.183Z,7.60
2019-01-11T16:24:12.062Z,7.60
2019-01-11T16:26:41.793Z,7.53
2019-01-11T16:29:11.395Z,8.40
2019-01-11T16:31:41.021Z,7.63
2019-01-11T16:34:10.585Z,8.73
2019-01-11T16:36:40.111Z,8.67
2019-01-11T16:39:10.125Z,8.93
2019-01-11T16:41:39.652Z,9.83
2019-01-11T16:44:09.255Z,12.43
2019-01-11T16:46:38.819Z,12.30
2019-01-11T16:49:08.345Z,9.10
2019-01-11T16:51:37.899Z,8.70
2019-01-11T16:54:07.443Z,11.90
2019-01-11T16:56:36.971Z,9.40
2019-01-11T16:59:07.527Z,10.20
2019-01-11T17:01:37.203Z,10.50
2019-01-11T17:04:06.946Z,10.93
2019-01-11T17:06:36.490Z,11.00
2019-01-11T17:09:08.803Z,11.17
2019-01-11T17:11:38.360Z,10.00
2019-01-11T17:14:08.160Z,15.93
2019-01-11T17:16:37.848Z,10.57
2019-01-11T17:19:07.386Z,12.90
2019-01-11T17:21:36.923Z,10.17
2019-01-11T17:24:06.546Z,11.37
2019-01-11T17:26:36.093Z,10.87
2019-01-11T17:29:05.846Z,12.10
2019-01-11T17:31:35.393Z,11.30
2019-01-11T17:34:05.271Z,15.63
2019-01-11T17:36:35.328Z,13.80
2019-01-11T17:39:07.635Z,14.10
2019-01-11T17:41:37.176Z,13.63
2019-01-11T17:44:06.886Z,10.97
2019-01-11T17:46:36.423Z,9.77
2019-01-11T17:49:06.261Z,9.60
2019-01-11T17:51:35.902Z,10.03
2019-01-11T17:54:05.805Z,14.93
2019-01-11T17:56:35.335Z,9.20
2019-01-11T17:59:05.392Z,9.20
2019-01-11T18:01:35.111Z,8.67
2019-01-11T18:04:04.902Z,12.47
2019-01-11T18:06:34.555Z,8.90
2019-01-11T18:09:06.038Z,12.50
2019-01-11T18:11:35.586Z,10.57
2019-01-11T18:14:05.380Z,8.57
2019-01-11T18:16:34.916Z,10.43
2019-01-11T18:19:04.536Z,9.87
2019-01-11T18:21:34.095Z,12.50
2019-01-11T18:24:03.697Z,10.00
2019-01-11T18:26:33.237Z,8.67
2019-01-11T18:29:02.920Z,11.73
2019-01-11T18:31:32.462Z,19.93
2019-01-11T18:34:01.995Z,7.87
2019-01-11T18:36:31.561Z,6.63
2019-01-11T18:39:01.097Z,5.93
2019-01-11T18:41:30.645Z,17.93
2019-01-11T18:44:00.362Z,8.43
2019-01-11T18:46:30.023Z,11.33
2019-01-11T18:48:59.588Z,10.93
2019-01-11T18:51:29.156Z,11.03
2019-01-11T18:53:58.681Z,11.17
2019-01-11T18:56:28.237Z,18.17
2019-01-11T18:58:57.797Z,14.13
2019-01-11T19:01:27.331Z,5.23
2019-01-11T19:03:56.871Z,7.40
2019-01-11T19:06:26.427Z,7.07
2019-01-11T19:08:55.966Z,11.23
2019-01-11T19:11:25.506Z,11.83
2019-01-11T19:13:55.451Z,7.40
2019-01-11T19:16:25.143Z,11.37
2019-01-11T19:18:54.706Z,17.07
2019-01-11T19:21:24.386Z,18.67
2019-01-11T19:23:53.918Z,5.60
2019-01-11T19:26:23.458Z,13.83
2019-01-11T19:28:53.022Z,9.70
2019-01-11T19:31:22.553Z,10.30
2019-01-11T19:33:53.631Z,19.40
2019-01-11T19:36:23.354Z,11.90
2019-01-11T19:38:52.883Z,12.23
2019-01-11T19:41:22.441Z,18.03
2019-01-11T19:43:52.067Z,14.10
2019-01-11T19:46:21.601Z,17.50
2019-01-11T19:48:51.406Z,18.20
2019-01-11T19:51:20.988Z,17.73
2019-01-11T19:53:50.518Z,18.67
2019-01-11T19:56:20.122Z,11.13
2019-01-11T19:58:49.689Z,13.57
2019-01-11T20:01:19.430Z,12.63
2019-01-11T20:03:48.997Z,13.50
2019-01-11T20:06:18.603Z,18.43
2019-01-11T20:08:48.341Z,15.77
2019-01-11T20:11:17.876Z,14.73
2019-01-11T20:13:47.417Z,13.97
2019-01-11T20:16:17.045Z,16.17
2019-01-11T20:18:46.572Z,14.20
2019-01-11T20:21:16.599Z,25.47
2019-01-11T20:23:46.132Z,28.17
2019-01-11T20:26:16.006Z,21.30
2019-01-11T20:28:45.624Z,19.07
2019-01-11T20:31:15.182Z,24.73
2019-01-11T20:33:44.743Z,17.07
2019-01-11T20:36:14.287Z,42.80
2019-01-11T20:38:43.826Z,21.60
2019-01-11T20:41:13.410Z,17.17
2019-01-11T20:43:43.018Z,22.90
2019-01-11T20:46:12.653Z,34.73
2019-01-11T20:48:42.188Z,20.53
2019-01-11T20:51:11.725Z,16.77
2019-01-11T20:53:41.935Z,25.80
2019-01-11T20:56:11.712Z,33.73
2019-01-11T20:58:41.435Z,29.30
2019-01-11T21:01:12.690Z,22.03
2019-01-11T21:03:42.394Z,30.53
2019-01-11T21:06:12.036Z,31.07
2019-01-11T21:08:41.577Z,27.10
2019-01-11T21:11:11.222Z,31.90
2019-01-11T21:13:40.925Z,24.83
2019-01-11T21:16:10.631Z,31.37
2019-01-11T21:18:40.196Z,30.70
2019-01-11T21:21:09.739Z,38.97
2019-01-11T21:23:39.281Z,37.13
2019-01-11T21:26:08.836Z,29.60
2019-01-11T21:28:38.371Z,38.03
2019-01-11T21:31:08.001Z,35.87
2019-01-11T21:33:37.545Z,37.07
2019-01-11T21:36:07.179Z,32.43
2019-01-11T21:38:36.720Z,23.80
2019-01-11T21:41:06.361Z,50.10
2019-01-11T21:43:35.967Z,37.53
2019-01-11T21:46:05.677Z,34.53
2019-01-11T21:48:35.225Z,32.17
2019-01-11T21:51:04.835Z,27.50
2019-01-11T21:53:34.458Z,33.23
2019-01-11T21:56:04.051Z,41.13
2019-01-11T21:58:33.598Z,32.60
2019-01-11T22:01:03.139Z,34.60
2019-01-11T22:03:32.749Z,34.17
2019-01-11T22:06:02.394Z,26.93
2019-01-11T22:08:32.051Z,42.03
2019-01-11T22:11:01.796Z,48.83
2019-01-11T22:13:31.669Z,37.90
2019-01-11T22:16:01.222Z,38.73
2019-01-11T22:18:30.761Z,39.80
2019-01-11T22:21:00.299Z,27.47
2019-01-11T22:23:30.205Z,37.27
2019-01-11T22:25:59.747Z,60.13
2019-01-11T22:28:29.368Z,48.47
2019-01-11T22:30:58.907Z,38.83
2019-01-11T22:33:28.436Z,38.37
2019-01-11T22:35:58.493Z,48.33
2019-01-11T22:38:28.025Z,38.20
2019-01-11T22:40:57.625Z,35.40
2019-01-11T22:43:27.315Z,30.27
2019-01-11T22:45:56.851Z,53.10
2019-01-11T22:48:26.380Z,56.17
2019-01-11T22:50:56.035Z,43.80
2019-01-11T22:53:25.572Z,31.93
2019-01-11T22:55:55.103Z,34.73
2019-01-11T22:58:24.667Z,55.37
2019-01-11T23:00:58.987Z,41.13
2019-01-11T23:03:33.413Z,41.40
2019-01-11T23:06:22.615Z,40.67
2019-01-11T23:08:52.174Z,33.77
2019-01-11T23:11:29.248Z,43.67
2019-01-11T23:13:58.824Z,41.13
2019-01-11T23:16:32.661Z,39.50
2019-01-11T23:19:02.196Z,61.40
2019-01-11T23:21:31.753Z,41.57
2019-01-11T23:24:01.286Z,66.27
2019-01-11T23:26:30.844Z,37.90
2019-01-11T23:29:00.379Z,56.20
2019-01-11T23:31:29.947Z,49.53
2019-01-11T23:33:59.471Z,55.70
2019-01-11T23:36:29.271Z,44.23
2019-01-11T23:38:58.833Z,51.33
2019-01-11T23:41:28.378Z,57.17
2019-01-11T23:43:57.925Z,48.67
2019-01-11T23:46:27.459Z,51.27
2019-01-11T23:48:57.116Z,50.20
2019-01-11T23:51:26.721Z,50.87
2019-01-11T23:53:56.247Z,35.27
2019-01-11T23:56:25.802Z,35.90
2019-01-11T23:58:55.338Z,48.17
